Terminal Aerodrome Forecast
Issued by NWS

Home | Current Version | Previous Version | Text Only | Print | Product List | Glossary On
Versions: 1 2 3 4 5 6 7 8 9 10 11 12 13 14 15 16 17
670
FTUS42 KTAE 031138
TAFDHN
TAF
KDHN 031138Z 0312/0412 24006KT P6SM SCT008 OVC035
      TEMPO 0312/0314 3SM BR BKN008
     FM031500 24007KT P6SM BKN030
     FM031800 26010KT 5SM TSRA BKN035CB
     FM040000 28006KT P6SM SCT050 BKN250
     FM040600 33007KT P6SM OVC050=

USA.gov is the U.S. government's official web portal to all federal, state and local government web resources and services.